Time;durP1;ratioP1;P1;durP2;ratioP2;P2;SDS_P1;SDS_P2;PMS_P1;PMS_P2;Temp;Humidity;BMP_temperature;BMP_pressure;BME280_temperature;BME280_humidity;BME280_pressure;Samples;Min_cycle;Max_cycle;Signal;HPM_P1;HPM_P2
2021/09/07 00:00:27;;;;;;;16.27;14.90;;;;;;;;;;5108264;28;24989;-59
2021/09/07 00:02:53;;;;;;;15.70;14.35;;;;;;;;;;5108366;28;24963;-60
2021/09/07 00:05:18;;;;;;;14.82;13.63;;;;;;;;;;5109147;28;24406;-59
2021/09/07 00:07:43;;;;;;;16.30;14.90;;;;;;;;;;5107411;28;24433;-60
2021/09/07 00:10:09;;;;;;;16.67;15.18;;;;;;;;;;5106683;28;24425;-60
2021/09/07 00:12:34;;;;;;;16.42;15.02;;;;;;;;;;5105794;28;25023;-60
2021/09/07 00:14:59;;;;;;;15.10;13.80;;;;;;;;;;5108566;28;24517;-60
2021/09/07 00:17:24;;;;;;;14.80;13.50;;;;;;;;;;5108520;28;24826;-59
2021/09/07 00:19:50;;;;;;;15.30;14.00;;;;;;;;;;5107966;28;24959;-59
2021/09/07 00:22:15;;;;;;;15.63;14.33;;;;;;;;;;5108649;28;24433;-60
2021/09/07 00:24:40;;;;;;;16.67;15.17;;;;;;;;;;5108105;28;24825;-59
2021/09/07 00:27:05;;;;;;;16.30;14.90;;;;;;;;;;5108758;28;24426;-60
2021/09/07 00:29:30;;;;;;;15.13;13.80;;;;;;;;;;5107594;28;24469;-59
2021/09/07 00:31:56;;;;;;;15.20;13.90;;;;;;;;;;5108604;28;24456;-59
2021/09/07 00:34:21;;;;;;;15.50;14.10;;;;;;;;;;5108173;28;24951;-59
2021/09/07 00:36:46;;;;;;;15.07;13.80;;;;;;;;;;5108401;28;24433;-59
2021/09/07 00:39:12;;;;;;;15.00;13.70;;;;;;;;;;5108448;28;25049;-59
2021/09/07 00:41:38;;;;;;;15.38;14.07;;;;;;;;;;5106625;28;24461;-60
2021/09/07 00:44:10;;;;;;;15.15;13.85;;;;;;;;;;5107589;28;24436;-59
2021/09/07 00:46:36;;;;;;;14.20;13.00;;;;;;;;;;5107852;28;24994;-60
2021/09/07 00:49:01;;;;;;;15.30;14.00;;;;;;;;;;5108572;28;24451;-59
2021/09/07 00:51:27;;;;;;;15.40;14.10;;;;;;;;;;5107700;27;24792;-59
2021/09/07 00:53:52;;;;;;;14.27;13.05;;;;;;;;;;5107535;28;24874;-60
2021/09/07 00:56:18;;;;;;;14.10;12.80;;;;;;;;;;5108115;28;24449;-59
2021/09/07 00:58:43;;;;;;;14.03;12.83;;;;;;;;;;5108424;28;24507;-59
2021/09/07 01:01:08;;;;;;;14.65;13.40;;;;;;;;;;5107846;28;24484;-59
2021/09/07 01:03:35;;;;;;;15.57;14.38;;;;;;;;;;5107351;28;24529;-59
2021/09/07 01:06:00;;;;;;;15.83;14.43;;;;;;;;;;5102432;28;24417;-59
2021/09/07 01:08:25;;;;;;;16.30;14.90;;;;;;;;;;5106844;28;24417;-59
2021/09/07 01:10:50;;;;;;;16.20;14.80;;;;;;;;;;5107847;28;24432;-59
2021/09/07 01:13:16;;;;;;;15.00;13.70;;;;;;;;;;5106387;28;24872;-58
2021/09/07 01:15:41;;;;;;;14.60;13.30;;;;;;;;;;5106488;28;25066;-59
2021/09/07 01:18:06;;;;;;;16.33;14.93;;;;;;;;;;5107921;28;24454;-60
2021/09/07 01:20:31;;;;;;;15.57;14.25;;;;;;;;;;5107228;28;24504;-59
2021/09/07 01:22:57;;;;;;;16.17;14.77;;;;;;;;;;5107762;28;24426;-59
2021/09/07 01:25:22;;;;;;;15.37;13.97;;;;;;;;;;5106897;28;24955;-59
2021/09/07 01:27:47;;;;;;;16.60;15.15;;;;;;;;;;5107444;28;24462;-59
2021/09/07 01:30:14;;;;;;;15.20;13.90;;;;;;;;;;5105474;28;24834;-59
2021/09/07 01:32:39;;;;;;;15.25;13.95;;;;;;;;;;5107362;28;24420;-59
2021/09/07 01:35:05;;;;;;;15.20;13.90;;;;;;;;;;5106934;28;24429;-60
2021/09/07 01:37:30;;;;;;;17.30;15.70;;;;;;;;;;5107860;28;24413;-59
2021/09/07 01:39:55;;;;;;;15.50;14.18;;;;;;;;;;5106359;28;24424;-59
2021/09/07 01:42:24;;;;;;;14.95;13.75;;;;;;;;;;5106972;28;24468;-59
2021/09/07 01:44:49;;;;;;;16.20;14.80;;;;;;;;;;5105199;28;24417;-58
2021/09/07 01:47:14;;;;;;;16.10;14.70;;;;;;;;;;5107067;28;24424;-59
2021/09/07 01:49:39;;;;;;;14.90;13.60;;;;;;;;;;5105869;28;24414;-58
2021/09/07 01:52:14;;;;;;;15.40;14.10;;;;;;;;;;5106713;28;24837;-59
2021/09/07 01:54:41;;;;;;;16.23;14.82;;;;;;;;;;5106646;28;24422;-58
2021/09/07 01:57:06;;;;;;;16.02;14.65;;;;;;;;;;5106355;28;24429;-59
2021/09/07 01:59:32;;;;;;;14.00;12.80;;;;;;;;;;5107806;28;24478;-59
2021/09/07 02:01:57;;;;;;;14.90;13.60;;;;;;;;;;5106442;28;24467;-59
2021/09/07 02:04:23;;;;;;;16.25;14.68;;;;;;;;;;5107113;28;24945;-59
2021/09/07 02:06:48;;;;;;;16.33;14.93;;;;;;;;;;5105338;28;24421;-59
2021/09/07 02:09:13;;;;;;;15.15;13.85;;;;;;;;;;5106550;28;25011;-59
2021/09/07 02:11:38;;;;;;;17.30;15.80;;;;;;;;;;5104354;28;24410;-59
2021/09/07 02:14:03;;;;;;;17.48;15.95;;;;;;;;;;5107035;28;24410;-59
2021/09/07 02:16:28;;;;;;;16.75;15.35;;;;;;;;;;5105384;28;25088;-60
2021/09/07 02:18:53;;;;;;;15.90;14.50;;;;;;;;;;5105863;28;24453;-59
2021/09/07 02:21:19;;;;;;;16.23;14.82;;;;;;;;;;5106171;28;24478;-59
2021/09/07 02:23:44;;;;;;;17.75;16.15;;;;;;;;;;5110842;28;25064;-59
2021/09/07 02:26:09;;;;;;;16.10;14.70;;;;;;;;;;5109982;28;24421;-59
2021/09/07 02:28:34;;;;;;;16.20;14.80;;;;;;;;;;5108260;28;24494;-59
2021/09/07 02:30:59;;;;;;;16.13;14.73;;;;;;;;;;5106912;28;24405;-59
2021/09/07 02:33:24;;;;;;;15.43;14.20;;;;;;;;;;5111019;28;24511;-59
2021/09/07 02:35:49;;;;;;;18.10;16.50;;;;;;;;;;5111089;28;24771;-59
2021/09/07 02:38:15;;;;;;;17.17;15.57;;;;;;;;;;5109131;28;24432;-59
2021/09/07 02:40:40;;;;;;;17.30;15.80;;;;;;;;;;5111129;28;24427;-59
2021/09/07 02:43:05;;;;;;;17.13;15.63;;;;;;;;;;5109509;28;24430;-59
2021/09/07 02:45:30;;;;;;;18.33;16.73;;;;;;;;;;5110048;28;24417;-59
2021/09/07 02:47:55;;;;;;;17.38;15.88;;;;;;;;;;5110314;28;24471;-59
2021/09/07 02:50:22;;;;;;;16.00;14.60;;;;;;;;;;5108039;28;24434;-60
2021/09/07 02:52:47;;;;;;;17.23;15.73;;;;;;;;;;5111695;28;24413;-59
2021/09/07 02:55:12;;;;;;;14.77;13.43;;;;;;;;;;5109932;28;24427;-59
2021/09/07 02:57:37;;;;;;;17.00;15.50;;;;;;;;;;5110494;28;24461;-59
2021/09/07 03:00:03;;;;;;;16.33;14.93;;;;;;;;;;5110184;28;24912;-59
2021/09/07 03:02:29;;;;;;;15.00;13.70;;;;;;;;;;5109910;28;24986;-60
2021/09/07 03:04:54;;;;;;;17.17;15.68;;;;;;;;;;5109489;28;24443;-59
2021/09/07 03:07:19;;;;;;;15.98;14.60;;;;;;;;;;5110334;28;24765;-60
2021/09/07 03:09:44;;;;;;;17.33;15.73;;;;;;;;;;5109830;28;24453;-60
2021/09/07 03:12:09;;;;;;;16.98;15.35;;;;;;;;;;5110119;28;24425;-60
2021/09/07 03:14:35;;;;;;;15.30;14.00;;;;;;;;;;5110001;28;24524;-59
2021/09/07 03:17:00;;;;;;;15.70;14.30;;;;;;;;;;5110438;28;24417;-60
2021/09/07 03:19:25;;;;;;;15.47;14.17;;;;;;;;;;5109087;28;24472;-60
2021/09/07 03:21:50;;;;;;;16.63;15.23;;;;;;;;;;5108461;28;24989;-60
2021/09/07 03:24:15;;;;;;;16.87;15.47;;;;;;;;;;5109383;28;24452;-59
2021/09/07 03:26:41;;;;;;;15.60;14.30;;;;;;;;;;5110141;28;24455;-60
2021/09/07 03:29:06;;;;;;;16.50;15.00;;;;;;;;;;5105428;28;24433;-60
2021/09/07 03:31:31;;;;;;;15.90;14.50;;;;;;;;;;5108732;28;24789;-60
2021/09/07 03:33:56;;;;;;;15.80;14.45;;;;;;;;;;5108812;28;24474;-59
2021/09/07 03:36:21;;;;;;;14.47;13.23;;;;;;;;;;5109148;28;24464;-59
2021/09/07 03:38:47;;;;;;;15.63;14.33;;;;;;;;;;5108214;28;24429;-59
2021/09/07 03:41:12;;;;;;;16.65;15.25;;;;;;;;;;5105282;27;24509;-59
2021/09/07 03:43:37;;;;;;;14.47;13.27;;;;;;;;;;5116447;27;24413;-59
2021/09/07 03:46:02;;;;;;;14.90;13.60;;;;;;;;;;5109116;28;24802;-57
2021/09/07 03:48:28;;;;;;;15.00;13.70;;;;;;;;;;5109158;28;24421;-58
2021/09/07 03:50:53;;;;;;;15.17;13.87;;;;;;;;;;5108025;28;24980;-58
2021/09/07 03:53:18;;;;;;;15.65;14.25;;;;;;;;;;5108189;28;24413;-59
2021/09/07 03:55:43;;;;;;;16.23;14.82;;;;;;;;;;5109709;28;24420;-58
2021/09/07 03:58:08;;;;;;;16.43;15.03;;;;;;;;;;5108439;28;24441;-59
2021/09/07 04:00:33;;;;;;;16.50;15.00;;;;;;;;;;5107755;28;24413;-58
2021/09/07 04:02:59;;;;;;;17.80;16.30;;;;;;;;;;5108651;28;24524;-59
2021/09/07 04:05:24;;;;;;;16.30;15.00;;;;;;;;;;5107213;28;25186;-59
2021/09/07 04:07:49;;;;;;;16.93;15.43;;;;;;;;;;5104969;28;24459;-59
2021/09/07 04:10:14;;;;;;;16.27;14.87;;;;;;;;;;5103838;28;24410;-59
2021/09/07 04:12:39;;;;;;;16.38;14.98;;;;;;;;;;5108543;28;24418;-59
2021/09/07 04:15:06;;;;;;;17.33;15.82;;;;;;;;;;5107612;28;24512;-60
2021/09/07 04:17:31;;;;;;;18.10;16.50;;;;;;;;;;5107984;28;24437;-60
2021/09/07 04:19:56;;;;;;;16.38;15.00;;;;;;;;;;5105439;28;24436;-59
2021/09/07 04:22:21;;;;;;;15.60;14.20;;;;;;;;;;5107773;28;24425;-58
2021/09/07 04:24:46;;;;;;;16.70;15.30;;;;;;;;;;5107279;28;24414;-58
2021/09/07 04:27:11;;;;;;;17.15;15.75;;;;;;;;;;5106352;27;24424;-58
2021/09/07 04:29:37;;;;;;;17.92;16.33;;;;;;;;;;5107167;28;24463;-58
2021/09/07 04:32:02;;;;;;;17.60;16.00;;;;;;;;;;5105796;28;24619;-58
2021/09/07 04:34:27;;;;;;;16.07;14.77;;;;;;;;;;5104801;28;24799;-59
2021/09/07 04:36:52;;;;;;;15.45;14.15;;;;;;;;;;5105099;28;24462;-59
2021/09/07 04:39:17;;;;;;;15.30;14.00;;;;;;;;;;5104844;28;24501;-58
2021/09/07 04:41:42;;;;;;;15.97;14.57;;;;;;;;;;5104413;28;24417;-59
2021/09/07 04:44:08;;;;;;;15.83;14.53;;;;;;;;;;5103947;27;24540;-59
2021/09/07 04:46:33;;;;;;;16.23;14.83;;;;;;;;;;5105432;28;24491;-59
2021/09/07 04:48:58;;;;;;;17.93;16.33;;;;;;;;;;5104868;28;24501;-59
2021/09/07 04:51:24;;;;;;;18.43;16.90;;;;;;;;;;5105071;28;25053;-58
2021/09/07 04:53:49;;;;;;;15.93;14.63;;;;;;;;;;5104734;28;25040;-58
2021/09/07 04:56:14;;;;;;;15.13;13.82;;;;;;;;;;5111517;27;24417;-58
2021/09/07 04:58:39;;;;;;;16.23;14.83;;;;;;;;;;5105179;28;24452;-58
2021/09/07 05:01:06;;;;;;;16.38;14.98;;;;;;;;;;5104693;28;24826;-57
2021/09/07 05:03:31;;;;;;;16.00;14.70;;;;;;;;;;5104608;28;24437;-58
2021/09/07 05:05:56;;;;;;;15.60;14.30;;;;;;;;;;5111491;27;24460;-59
2021/09/07 05:08:21;;;;;;;15.73;14.33;;;;;;;;;;5105678;27;24421;-59
2021/09/07 05:10:46;;;;;;;15.47;14.17;;;;;;;;;;5104575;28;25069;-59
2021/09/07 05:13:12;;;;;;;15.43;14.13;;;;;;;;;;5104253;28;25019;-59
2021/09/07 05:15:37;;;;;;;15.90;14.60;;;;;;;;;;5105168;27;24475;-60
2021/09/07 05:18:02;;;;;;;15.77;14.48;;;;;;;;;;5108920;27;24524;-59
2021/09/07 05:20:27;;;;;;;13.93;12.83;;;;;;;;;;5106838;28;24978;-59
2021/09/07 05:22:52;;;;;;;15.33;13.93;;;;;;;;;;5107407;28;24426;-60
2021/09/07 05:25:17;;;;;;;14.87;13.57;;;;;;;;;;5107812;28;24994;-59
2021/09/07 05:27:42;;;;;;;14.80;13.60;;;;;;;;;;5120120;27;24507;-59
2021/09/07 05:30:09;;;;;;;13.70;12.60;;;;;;;;;;5127266;27;24421;-59
2021/09/07 05:32:35;;;;;;;12.57;11.57;;;;;;;;;;5113497;27;24410;-59
2021/09/07 05:35:00;;;;;;;14.10;13.00;;;;;;;;;;5107218;28;24404;-59
2021/09/07 05:37:25;;;;;;;13.77;12.57;;;;;;;;;;5112612;27;24409;-60
2021/09/07 05:39:50;;;;;;;15.98;14.65;;;;;;;;;;5127987;27;24420;-59
2021/09/07 05:42:15;;;;;;;15.55;14.25;;;;;;;;;;5126718;27;24424;-59
2021/09/07 05:44:41;;;;;;;16.65;15.25;;;;;;;;;;5118839;27;24442;-60
2021/09/07 05:47:06;;;;;;;17.90;16.30;;;;;;;;;;5106254;27;24951;-59
2021/09/07 05:49:31;;;;;;;15.48;14.27;;;;;;;;;;5125713;27;24449;-59
2021/09/07 05:51:57;;;;;;;14.80;13.60;;;;;;;;;;5127827;27;24397;-59
2021/09/07 05:54:22;;;;;;;15.07;13.77;;;;;;;;;;5105673;27;25124;-58
2021/09/07 05:56:47;;;;;;;15.30;13.90;;;;;;;;;;5103487;28;24420;-58
2021/09/07 05:59:13;;;;;;;14.87;13.67;;;;;;;;;;5115495;27;24843;-59
2021/09/07 06:01:38;;;;;;;14.60;13.40;;;;;;;;;;5124824;27;24463;-60
2021/09/07 06:04:04;;;;;;;15.93;14.53;;;;;;;;;;5100602;27;24979;-60
2021/09/07 06:06:29;;;;;;;14.60;13.30;;;;;;;;;;5100603;28;24421;-60
2021/09/07 06:08:54;;;;;;;14.68;13.35;;;;;;;;;;5104310;27;24445;-60
2021/09/07 06:11:20;;;;;;;15.70;14.30;;;;;;;;;;5107788;28;25031;-59
2021/09/07 06:13:45;;;;;;;16.23;14.83;;;;;;;;;;5108320;28;24448;-59
2021/09/07 06:16:10;;;;;;;15.40;14.10;;;;;;;;;;5119242;28;24517;-60
2021/09/07 06:18:35;;;;;;;14.00;12.80;;;;;;;;;;5110412;28;24455;-60
2021/09/07 06:21:00;;;;;;;14.70;13.50;;;;;;;;;;5110752;28;25063;-59
2021/09/07 06:23:25;;;;;;;16.83;15.32;;;;;;;;;;5104285;28;24962;-60
2021/09/07 06:25:51;;;;;;;14.37;13.20;;;;;;;;;;5103295;28;24417;-60
2021/09/07 06:28:16;;;;;;;15.80;14.40;;;;;;;;;;5108081;28;24512;-59
2021/09/07 06:30:41;;;;;;;15.43;14.10;;;;;;;;;;5110039;28;24509;-59
2021/09/07 06:33:06;;;;;;;15.57;14.27;;;;;;;;;;5103461;28;24946;-59
2021/09/07 06:35:31;;;;;;;13.50;12.40;;;;;;;;;;5101885;28;24854;-60
2021/09/07 06:37:57;;;;;;;12.35;11.35;;;;;;;;;;5105744;28;24955;-58
2021/09/07 06:40:22;;;;;;;14.23;13.03;;;;;;;;;;5105911;28;24441;-59
2021/09/07 06:42:48;;;;;;;17.05;15.55;;;;;;;;;;5104033;28;24986;-59
2021/09/07 06:45:14;;;;;;;14.65;13.45;;;;;;;;;;5105801;28;24424;-59
2021/09/07 06:47:39;;;;;;;12.80;11.80;;;;;;;;;;5105940;28;24497;-60
2021/09/07 06:50:05;;;;;;;15.87;14.57;;;;;;;;;;5110588;28;24510;-59
2021/09/07 06:52:30;;;;;;;13.70;12.60;;;;;;;;;;5106615;28;24493;-59
2021/09/07 06:54:55;;;;;;;15.65;14.35;;;;;;;;;;5106232;28;24500;-60
2021/09/07 06:57:20;;;;;;;14.10;12.97;;;;;;;;;;5105119;28;24429;-59
2021/09/07 06:59:46;;;;;;;15.57;14.23;;;;;;;;;;5107417;28;24782;-59
2021/09/07 07:02:11;;;;;;;13.63;12.43;;;;;;;;;;5105878;28;24495;-59
2021/09/07 07:04:36;;;;;;;13.52;12.32;;;;;;;;;;5106499;28;24806;-59
2021/09/07 07:07:01;;;;;;;14.63;13.33;;;;;;;;;;5106292;28;24951;-60
2021/09/07 07:09:26;;;;;;;16.25;14.68;;;;;;;;;;5108914;28;24933;-59
2021/09/07 07:11:51;;;;;;;16.67;15.18;;;;;;;;;;5111638;27;24402;-60
2021/09/07 07:14:20;;;;;;;15.40;14.10;;;;;;;;;;5110731;28;24446;-60
2021/09/07 07:16:46;;;;;;;18.50;16.80;;;;;;;;;;5110543;28;24457;-59
2021/09/07 07:19:11;;;;;;;15.97;14.47;;;;;;;;;;5109488;28;24420;-59
2021/09/07 07:21:36;;;;;;;15.93;14.53;;;;;;;;;;5115490;27;24969;-59
2021/09/07 07:24:01;;;;;;;18.00;16.20;;;;;;;;;;5110298;28;24949;-59
2021/09/07 07:26:26;;;;;;;16.55;15.05;;;;;;;;;;5109933;28;24931;-59
2021/09/07 07:28:52;;;;;;;13.97;12.73;;;;;;;;;;5109425;28;24511;-60
2021/09/07 07:31:17;;;;;;;12.40;11.30;;;;;;;;;;5109894;28;24401;-60
2021/09/07 07:33:42;;;;;;;13.77;12.48;;;;;;;;;;5110716;27;24417;-60
2021/09/07 07:36:07;;;;;;;15.50;14.10;;;;;;;;;;5109681;28;24411;-60
2021/09/07 07:38:32;;;;;;;20.03;18.03;;;;;;;;;;5109643;28;24397;-60
2021/09/07 07:40:57;;;;;;;20.00;18.00;;;;;;;;;;5109407;28;24417;-60
2021/09/07 07:43:25;;;;;;;18.40;16.60;;;;;;;;;;5110419;27;25052;-60
2021/09/07 07:45:51;;;;;;;16.33;14.87;;;;;;;;;;5109461;28;24966;-60
2021/09/07 07:48:16;;;;;;;14.10;12.80;;;;;;;;;;5109189;28;24447;-60
2021/09/07 07:50:41;;;;;;;18.52;16.73;;;;;;;;;;5126827;27;24528;-60
2021/09/07 07:53:07;;;;;;;14.37;13.10;;;;;;;;;;5112488;27;24414;-59
2021/09/07 07:55:32;;;;;;;14.35;13.05;;;;;;;;;;5109375;28;24564;-60
2021/09/07 07:57:57;;;;;;;18.58;16.75;;;;;;;;;;5109304;27;24441;-59
2021/09/07 08:00:22;;;;;;;17.08;15.55;;;;;;;;;;5108635;28;24447;-61
2021/09/07 08:02:47;;;;;;;13.90;12.70;;;;;;;;;;5108604;28;24452;-59
2021/09/07 08:05:12;;;;;;;14.77;13.47;;;;;;;;;;5109272;28;24438;-59
2021/09/07 08:07:38;;;;;;;16.42;14.82;;;;;;;;;;5112033;27;24406;-59
2021/09/07 08:10:03;;;;;;;14.80;13.50;;;;;;;;;;5108761;28;24483;-59
2021/09/07 08:12:29;;;;;;;16.02;14.52;;;;;;;;;;5109081;28;24409;-59
2021/09/07 08:14:54;;;;;;;17.23;15.53;;;;;;;;;;5108897;28;24512;-59
2021/09/07 08:17:19;;;;;;;14.90;13.50;;;;;;;;;;5109047;28;24394;-60
2021/09/07 08:19:44;;;;;;;17.47;15.70;;;;;;;;;;5108705;27;24464;-60
2021/09/07 08:22:10;;;;;;;13.63;12.43;;;;;;;;;;5108285;28;24413;-59
2021/09/07 08:24:35;;;;;;;15.07;13.68;;;;;;;;;;5108935;28;24410;-60
2021/09/07 08:27:01;;;;;;;16.00;14.50;;;;;;;;;;5108708;28;24414;-59
2021/09/07 08:29:26;;;;;;;14.85;13.45;;;;;;;;;;5108892;27;25067;-58
2021/09/07 08:31:51;;;;;;;16.10;14.57;;;;;;;;;;5108488;28;24404;-58
2021/09/07 08:34:16;;;;;;;17.85;16.17;;;;;;;;;;5108360;28;24425;-59
2021/09/07 08:36:41;;;;;;;13.90;12.70;;;;;;;;;;5108834;28;25166;-58
2021/09/07 08:39:06;;;;;;;15.50;14.10;;;;;;;;;;5111965;27;24405;-58
2021/09/07 08:41:31;;;;;;;16.92;15.23;;;;;;;;;;5113897;27;24794;-58
2021/09/07 08:43:57;;;;;;;14.82;13.43;;;;;;;;;;5108719;28;25257;-59
2021/09/07 08:46:22;;;;;;;13.82;12.63;;;;;;;;;;5108706;28;24406;-60
2021/09/07 08:48:47;;;;;;;15.65;14.15;;;;;;;;;;5108578;28;24438;-60
2021/09/07 08:51:16;;;;;;;15.50;14.10;;;;;;;;;;5108821;28;24520;-59
2021/09/07 08:53:42;;;;;;;13.15;11.98;;;;;;;;;;5108400;28;24414;-59
2021/09/07 08:56:07;;;;;;;13.53;12.33;;;;;;;;;;5108747;28;24421;-59
2021/09/07 08:58:33;;;;;;;16.58;15.18;;;;;;;;;;5108572;28;24400;-59
2021/09/07 09:01:08;;;;;;;16.60;15.10;;;;;;;;;;5121428;27;24424;-59
2021/09/07 09:03:33;;;;;;;14.60;13.20;;;;;;;;;;5129132;27;24765;-60
2021/09/07 09:05:58;;;;;;;16.15;14.55;;;;;;;;;;5118098;27;24409;-58
2021/09/07 09:08:24;;;;;;;14.15;12.85;;;;;;;;;;5107922;28;24397;-59
2021/09/07 09:11:01;;;;;;;12.00;11.00;;;;;;;;;;5116282;27;24457;-58
2021/09/07 09:13:39;;;;;;;12.20;11.15;;;;;;;;;;5124931;27;24417;-59
2021/09/07 09:16:05;;;;;;;14.60;13.30;;;;;;;;;;5115911;27;24421;-59
2021/09/07 09:18:34;;;;;;;14.23;13.00;;;;;;;;;;5107933;28;24397;-59
2021/09/07 09:21:17;;;;;;;15.50;14.00;;;;;;;;;;5089767;28;24497;-59
2021/09/07 09:23:46;;;;;;;12.90;11.70;;;;;;;;;;5087853;28;24459;-59
2021/09/07 09:26:11;;;;;;;12.38;11.27;;;;;;;;;;5114080;27;24419;-58
2021/09/07 09:28:36;;;;;;;12.20;11.07;;;;;;;;;;5117642;27;25106;-58
2021/09/07 09:31:01;;;;;;;13.10;11.90;;;;;;;;;;5109060;27;24468;-60
2021/09/07 09:33:28;;;;;;;13.33;12.13;;;;;;;;;;5107135;28;24442;-58
2021/09/07 09:35:57;;;;;;;14.40;12.90;;;;;;;;;;5108093;28;24386;-58
2021/09/07 09:38:25;;;;;;;12.98;11.88;;;;;;;;;;5107551;28;24419;-59
2021/09/07 09:40:51;;;;;;;15.02;13.63;;;;;;;;;;5107928;28;24940;-59
2021/09/07 09:43:23;;;;;;;13.32;12.13;;;;;;;;;;5107932;28;24409;-59
2021/09/07 09:45:48;;;;;;;13.60;12.40;;;;;;;;;;5107878;28;24424;-58
2021/09/07 09:48:23;;;;;;;10.68;9.77;;;;;;;;;;5107659;28;24409;-58
2021/09/07 09:50:52;;;;;;;17.08;15.48;;;;;;;;;;5120884;27;24440;-58
2021/09/07 09:53:18;;;;;;;13.18;11.98;;;;;;;;;;5107173;28;24413;-59
2021/09/07 09:55:43;;;;;;;12.05;11.05;;;;;;;;;;5118364;27;24969;-59
2021/09/07 09:58:08;;;;;;;12.50;11.30;;;;;;;;;;5128190;27;24484;-58
2021/09/07 10:00:34;;;;;;;11.37;10.37;;;;;;;;;;5126241;27;24982;-59
2021/09/07 10:03:01;;;;;;;12.88;11.68;;;;;;;;;;5114967;27;25037;-59
2021/09/07 10:05:26;;;;;;;10.48;9.57;;;;;;;;;;5107430;28;24428;-59
2021/09/07 10:07:51;;;;;;;9.20;8.40;;;;;;;;;;5107406;28;24809;-59
2021/09/07 10:10:20;;;;;;;12.70;11.50;;;;;;;;;;5107435;28;24401;-59
2021/09/07 10:12:53;;;;;;;14.60;13.30;;;;;;;;;;5107333;28;24408;-59
2021/09/07 10:15:42;;;;;;;11.20;10.20;;;;;;;;;;5107059;28;24813;-59
2021/09/07 10:23:50;;;;;;;11.88;10.77;;;;;;;;;;5107238;28;24510;-59
2021/09/07 10:26:15;;;;;;;12.70;11.48;;;;;;;;;;5107492;28;24409;-59
2021/09/07 10:28:43;;;;;;;12.63;11.43;;;;;;;;;;5106600;28;25030;-59
2021/09/07 10:31:11;;;;;;;14.57;13.20;;;;;;;;;;5107652;28;24516;-59
2021/09/07 10:33:40;;;;;;;13.93;12.63;;;;;;;;;;5127640;28;24466;-59
2021/09/07 10:36:34;;;;;;;14.07;12.60;;;;;;;;;;5127695;28;24397;-59
2021/09/07 10:39:02;;;;;;;11.10;10.03;;;;;;;;;;5124206;28;24420;-59
2021/09/07 10:41:33;;;;;;;13.85;12.45;;;;;;;;;;5106698;28;24413;-58
2021/09/07 10:43:59;;;;;;;13.80;12.40;;;;;;;;;;5109921;28;24425;-59
2021/09/07 10:46:37;;;;;;;14.57;13.07;;;;;;;;;;5110898;28;24390;-59
2021/09/07 10:49:22;;;;;;;14.02;12.70;;;;;;;;;;5110827;28;24459;-58
2021/09/07 10:52:07;;;;;;;13.05;11.80;;;;;;;;;;5111039;28;24434;-58
2021/09/07 10:54:33;;;;;;;12.57;11.47;;;;;;;;;;5111751;27;24571;-58
2021/09/07 10:56:59;;;;;;;13.50;12.20;;;;;;;;;;5110874;28;24868;-59
2021/09/07 10:59:43;;;;;;;12.57;11.43;;;;;;;;;;5110619;28;24397;-58
2021/09/07 11:02:31;;;;;;;13.65;12.35;;;;;;;;;;5110624;28;24378;-58
2021/09/07 11:04:56;;;;;;;13.63;12.43;;;;;;;;;;5111144;27;25079;-58
2021/09/07 11:07:42;;;;;;;12.48;11.38;;;;;;;;;;5110503;28;24417;-58
2021/09/07 11:10:25;;;;;;;11.13;10.13;;;;;;;;;;5110068;28;24482;-58
2021/09/07 11:12:54;;;;;;;12.82;11.07;;;;;;;;;;5111029;28;24753;-58
2021/09/07 11:15:21;;;;;;;11.20;10.20;;;;;;;;;;5111329;27;24798;-60
2021/09/07 11:17:55;;;;;;;10.50;9.60;;;;;;;;;;5122212;27;24409;-58
2021/09/07 11:20:21;;;;;;;9.48;8.68;;;;;;;;;;5130830;27;24431;-58
2021/09/07 11:22:47;;;;;;;8.43;7.63;;;;;;;;;;5130759;27;24420;-58
2021/09/07 11:25:13;;;;;;;8.50;7.77;;;;;;;;;;5112946;27;24422;-59
2021/09/07 11:27:48;;;;;;;10.27;9.27;;;;;;;;;;5112136;27;24570;-60
2021/09/07 11:30:33;;;;;;;10.20;9.30;;;;;;;;;;5110021;28;24412;-59
2021/09/07 11:33:13;;;;;;;11.20;10.20;;;;;;;;;;5110380;28;24450;-59
2021/09/07 11:35:38;;;;;;;9.20;8.40;;;;;;;;;;5109929;28;24390;-59
2021/09/07 11:38:05;;;;;;;10.60;9.50;;;;;;;;;;5111023;27;24416;-59
2021/09/07 11:40:32;;;;;;;9.00;8.20;;;;;;;;;;5109881;28;24447;-59
2021/09/07 11:42:57;;;;;;;8.27;7.50;;;;;;;;;;5110469;28;24420;-59
2021/09/07 11:45:32;;;;;;;11.00;10.00;;;;;;;;;;5110000;28;24385;-60
2021/09/07 11:47:59;;;;;;;12.25;11.10;;;;;;;;;;5112144;27;25008;-60
2021/09/07 11:50:27;;;;;;;9.38;8.57;;;;;;;;;;5128950;27;25025;-58
2021/09/07 11:52:53;;;;;;;11.85;10.85;;;;;;;;;;5108958;28;24431;-59
2021/09/07 11:55:38;;;;;;;11.60;10.50;;;;;;;;;;5108416;28;21377;-58
2021/09/07 11:58:03;;;;;;;9.15;8.35;;;;;;;;;;5109582;27;24456;-58
2021/09/07 12:00:28;;;;;;;8.63;7.83;;;;;;;;;;5109239;28;25208;-58
2021/09/07 12:03:13;;;;;;;8.45;7.75;;;;;;;;;;5109591;28;24974;-59
2021/09/07 12:05:57;;;;;;;8.70;8.00;;;;;;;;;;5109295;28;24498;-58
2021/09/07 12:08:36;;;;;;;12.32;11.23;;;;;;;;;;5111653;27;24456;-59
2021/09/07 12:11:01;;;;;;;9.90;9.10;;;;;;;;;;5109006;28;24955;-59
2021/09/07 12:13:26;;;;;;;9.60;8.70;;;;;;;;;;5109359;28;24424;-59
2021/09/07 12:15:52;;;;;;;12.20;11.10;;;;;;;;;;5102355;28;24398;-59
2021/09/07 12:18:26;;;;;;;9.33;8.60;;;;;;;;;;5112385;27;25039;-59
2021/09/07 12:20:51;;;;;;;10.60;9.70;;;;;;;;;;5130082;27;24405;-58
2021/09/07 12:23:29;;;;;;;8.93;8.23;;;;;;;;;;5129721;27;25113;-59
2021/09/07 12:25:55;;;;;;;14.40;13.00;;;;;;;;;;5130054;27;24393;-59
2021/09/07 12:28:20;;;;;;;12.52;11.25;;;;;;;;;;5125003;27;24406;-59
2021/09/07 12:30:45;;;;;;;11.13;10.20;;;;;;;;;;5127688;27;24413;-59
2021/09/07 12:33:14;;;;;;;9.93;9.13;;;;;;;;;;5129866;27;24812;-59
2021/09/07 12:35:42;;;;;;;8.48;7.78;;;;;;;;;;5129398;27;24781;-58
2021/09/07 12:38:07;;;;;;;9.65;8.85;;;;;;;;;;5127984;27;24424;-59
2021/09/07 12:40:33;;;;;;;8.70;8.00;;;;;;;;;;5124306;27;24449;-59
2021/09/07 12:43:04;;;;;;;8.45;7.75;;;;;;;;;;5108655;28;24426;-59
2021/09/07 12:45:29;;;;;;;8.98;8.23;;;;;;;;;;5108747;28;24385;-58
2021/09/07 12:47:54;;;;;;;8.40;7.70;;;;;;;;;;5109111;28;24926;-60
2021/09/07 12:50:19;;;;;;;8.23;7.53;;;;;;;;;;5121295;27;24486;-59
2021/09/07 12:52:45;;;;;;;8.50;7.80;;;;;;;;;;5129067;27;24562;-59
2021/09/07 12:55:10;;;;;;;12.70;10.63;;;;;;;;;;5114088;27;24405;-59
2021/09/07 12:57:35;;;;;;;10.53;9.53;;;;;;;;;;5128794;27;24412;-60
2021/09/07 13:00:00;;;;;;;11.30;10.20;;;;;;;;;;5113667;27;24966;-60
2021/09/07 13:02:25;;;;;;;11.63;10.60;;;;;;;;;;5108447;28;24550;-59
2021/09/07 13:04:50;;;;;;;9.32;8.43;;;;;;;;;;5108451;28;24410;-58
2021/09/07 13:07:17;;;;;;;8.48;7.68;;;;;;;;;;5108239;28;24756;-59
2021/09/07 13:09:42;;;;;;;10.30;9.48;;;;;;;;;;5109041;27;24587;-59
2021/09/07 13:12:07;;;;;;;9.38;8.57;;;;;;;;;;5108590;28;25049;-59
2021/09/07 13:14:32;;;;;;;9.40;8.60;;;;;;;;;;5108309;28;24398;-59
2021/09/07 13:16:57;;;;;;;10.23;9.30;;;;;;;;;;5107915;28;24406;-59
2021/09/07 13:19:23;;;;;;;10.20;9.40;;;;;;;;;;5107993;27;25031;-59
2021/09/07 13:21:48;;;;;;;9.53;8.73;;;;;;;;;;5125839;27;24402;-59
2021/09/07 13:24:13;;;;;;;11.07;10.07;;;;;;;;;;5128773;27;24517;-59
2021/09/07 13:26:38;;;;;;;9.70;8.90;;;;;;;;;;5128230;27;24492;-59
2021/09/07 13:29:03;;;;;;;9.30;8.50;;;;;;;;;;5122526;27;25031;-59
2021/09/07 13:31:28;;;;;;;9.10;8.30;;;;;;;;;;5120798;27;24403;-59
2021/09/07 13:33:54;;;;;;;9.70;8.80;;;;;;;;;;5128648;27;24405;-59
2021/09/07 13:36:19;;;;;;;10.38;9.38;;;;;;;;;;5128580;27;24392;-59
2021/09/07 13:38:44;;;;;;;8.23;7.63;;;;;;;;;;5127955;27;24397;-60
2021/09/07 13:41:09;;;;;;;8.03;7.43;;;;;;;;;;5110802;27;24424;-60
2021/09/07 13:43:35;;;;;;;8.37;7.67;;;;;;;;;;5107515;28;24470;-60
2021/09/07 13:46:00;;;;;;;9.50;8.70;;;;;;;;;;5107850;28;24759;-59
2021/09/07 13:48:25;;;;;;;8.48;7.78;;;;;;;;;;5107253;28;25243;-59
2021/09/07 13:50:50;;;;;;;7.30;6.70;;;;;;;;;;5107082;28;24456;-59
2021/09/07 13:53:16;;;;;;;9.87;9.07;;;;;;;;;;5108817;27;24516;-59
2021/09/07 13:55:41;;;;;;;9.87;9.07;;;;;;;;;;5107493;28;24449;-60
2021/09/07 13:58:06;;;;;;;11.63;10.43;;;;;;;;;;5107733;28;24410;-59
2021/09/07 14:00:32;;;;;;;9.80;8.90;;;;;;;;;;5107398;28;25302;-59
2021/09/07 14:02:57;;;;;;;7.90;7.20;;;;;;;;;;5108515;27;24432;-60
2021/09/07 14:05:22;;;;;;;8.23;7.53;;;;;;;;;;5107227;28;24422;-60
2021/09/07 14:07:47;;;;;;;9.37;8.63;;;;;;;;;;5107375;28;24385;-61
2021/09/07 14:10:13;;;;;;;11.17;10.20;;;;;;;;;;5107432;28;24421;-60
2021/09/07 14:12:39;;;;;;;11.15;10.18;;;;;;;;;;5110475;28;24405;-60
2021/09/07 14:15:04;;;;;;;11.60;10.50;;;;;;;;;;5113002;28;24907;-59
2021/09/07 14:17:29;;;;;;;12.23;11.13;;;;;;;;;;5105768;28;24566;-60
2021/09/07 14:19:55;;;;;;;9.20;8.50;;;;;;;;;;5106353;28;24422;-60
2021/09/07 14:22:20;;;;;;;10.70;9.70;;;;;;;;;;5105152;28;24970;-60